sensor_id;sensor_type;location;lat;lon;timestamp;pressure;altitude;pressure_sealevel;temperature;humidity
15263;BME280;7733;51.554;13.590;2023-03-03T00:00:42;101179.78;;;1.87;100.00
15263;BME280;7733;51.554;13.590;2023-03-03T00:03:11;101183.31;;;1.64;100.00
15263;BME280;7733;51.554;13.590;2023-03-03T00:05:40;101177.09;;;1.84;100.00
15263;BME280;7733;51.554;13.590;2023-03-03T00:08:07;101173.16;;;1.70;100.00
15263;BME280;7733;51.554;13.590;2023-03-03T00:10:33;101181.94;;;1.49;100.00
15263;BME280;7733;51.554;13.590;2023-03-03T00:12:59;101171.09;;;1.12;100.00
15263;BME280;7733;51.554;13.590;2023-03-03T00:15:26;101176.56;;;1.69;100.00
15263;BME280;7733;51.554;13.590;2023-03-03T00:17:53;101172.78;;;1.35;100.00
15263;BME280;7733;51.554;13.590;2023-03-03T00:20:37;101175.22;;;1.80;100.00
15263;BME280;7733;51.554;13.590;2023-03-03T00:23:36;101178.38;;;1.97;100.00
15263;BME280;7733;51.554;13.590;2023-03-03T00:26:19;101187.31;;;1.56;100.00
15263;BME280;7733;51.554;13.590;2023-03-03T00:28:51;101177.72;;;2.02;100.00
15263;BME280;7733;51.554;13.590;2023-03-03T00:33:54;101175.41;;;1.85;100.00
15263;BME280;7733;51.554;13.590;2023-03-03T00:39:16;101176.16;;;1.09;100.00
15263;BME280;7733;51.554;13.590;2023-03-03T00:41:42;101168.91;;;1.72;100.00
15263;BME280;7733;51.554;13.590;2023-03-03T00:44:44;101175.56;;;0.94;100.00
15263;BME280;7733;51.554;13.590;2023-03-03T00:47:42;101178.28;;;0.74;100.00
15263;BME280;7733;51.554;13.590;2023-03-03T00:53:02;101187.06;;;0.57;100.00
15263;BME280;7733;51.554;13.590;2023-03-03T00:55:29;101186.91;;;0.32;100.00
15263;BME280;7733;51.554;13.590;2023-03-03T00:57:55;101183.22;;;0.90;100.00
15263;BME280;7733;51.554;13.590;2023-03-03T01:00:22;101177.94;;;0.87;100.00
15263;BME280;7733;51.554;13.590;2023-03-03T01:02:47;101185.25;;;0.77;100.00
15263;BME280;7733;51.554;13.590;2023-03-03T01:05:16;101172.06;;;1.39;100.00
15263;BME280;7733;51.554;13.590;2023-03-03T01:07:42;101170.31;;;1.62;100.00
15263;BME280;7733;51.554;13.590;2023-03-03T01:10:09;101166.97;;;1.65;100.00
15263;BME280;7733;51.554;13.590;2023-03-03T01:12:35;101167.16;;;1.71;100.00
15263;BME280;7733;51.554;13.590;2023-03-03T01:15:02;101163.84;;;2.00;100.00
15263;BME280;7733;51.554;13.590;2023-03-03T01:17:28;101170.47;;;1.92;100.00
15263;BME280;7733;51.554;13.590;2023-03-03T01:19:54;101172.75;;;1.10;100.00
15263;BME280;7733;51.554;13.590;2023-03-03T01:22:19;101182.09;;;1.30;100.00
15263;BME280;7733;51.554;13.590;2023-03-03T01:24:45;101179.34;;;1.02;100.00
15263;BME280;7733;51.554;13.590;2023-03-03T01:27:11;101169.25;;;0.85;100.00
15263;BME280;7733;51.554;13.590;2023-03-03T01:29:36;101165.19;;;1.16;100.00
15263;BME280;7733;51.554;13.590;2023-03-03T01:32:02;101163.13;;;1.06;100.00
15263;BME280;7733;51.554;13.590;2023-03-03T01:34:28;101175.25;;;0.62;100.00
15263;BME280;7733;51.554;13.590;2023-03-03T01:36:53;101169.19;;;0.62;100.00
15263;BME280;7733;51.554;13.590;2023-03-03T01:39:19;101167.00;;;0.72;100.00
15263;BME280;7733;51.554;13.590;2023-03-03T01:41:45;101167.78;;;0.47;100.00
15263;BME280;7733;51.554;13.590;2023-03-03T01:44:14;101169.63;;;0.29;100.00
15263;BME280;7733;51.554;13.590;2023-03-03T01:46:59;101163.13;;;0.39;100.00
15263;BME280;7733;51.554;13.590;2023-03-03T01:49:46;101161.91;;;0.74;100.00
15263;BME280;7733;51.554;13.590;2023-03-03T01:54:54;101177.34;;;0.72;100.00
15263;BME280;7733;51.554;13.590;2023-03-03T01:57:30;101173.88;;;0.72;100.00
15263;BME280;7733;51.554;13.590;2023-03-03T01:59:59;101171.13;;;0.89;100.00
15263;BME280;7733;51.554;13.590;2023-03-03T02:02:27;101165.19;;;0.92;100.00
15263;BME280;7733;51.554;13.590;2023-03-03T02:04:54;101168.16;;;0.58;100.00
15263;BME280;7733;51.554;13.590;2023-03-03T02:07:22;101173.66;;;0.22;100.00
15263;BME280;7733;51.554;13.590;2023-03-03T02:10:04;101168.88;;;0.54;100.00
15263;BME280;7733;51.554;13.590;2023-03-03T02:12:43;101168.41;;;0.86;100.00
15263;BME280;7733;51.554;13.590;2023-03-03T02:15:26;101176.13;;;0.63;100.00
15263;BME280;7733;51.554;13.590;2023-03-03T02:17:56;101172.59;;;0.83;100.00
15263;BME280;7733;51.554;13.590;2023-03-03T02:23:05;101170.81;;;1.04;100.00
15263;BME280;7733;51.554;13.590;2023-03-03T02:25:50;101175.94;;;1.03;100.00
15263;BME280;7733;51.554;13.590;2023-03-03T02:28:19;101162.97;;;1.01;100.00
15263;BME280;7733;51.554;13.590;2023-03-03T02:30:45;101171.97;;;1.12;100.00
15263;BME280;7733;51.554;13.590;2023-03-03T02:33:11;101162.19;;;1.04;100.00
15263;BME280;7733;51.554;13.590;2023-03-03T02:35:39;101155.00;;;1.43;100.00
15263;BME280;7733;51.554;13.590;2023-03-03T02:38:40;101151.53;;;1.42;100.00
15263;BME280;7733;51.554;13.590;2023-03-03T02:41:16;101156.41;;;1.11;100.00
15263;BME280;7733;51.554;13.590;2023-03-03T02:44:13;101158.22;;;1.37;100.00
15263;BME280;7733;51.554;13.590;2023-03-03T02:46:47;101148.75;;;1.62;100.00
15263;BME280;7733;51.554;13.590;2023-03-03T02:49:16;101152.38;;;1.67;100.00
15263;BME280;7733;51.554;13.590;2023-03-03T02:51:43;101147.28;;;1.70;100.00
15263;BME280;7733;51.554;13.590;2023-03-03T02:54:11;101151.63;;;1.71;100.00
15263;BME280;7733;51.554;13.590;2023-03-03T02:56:38;101143.09;;;1.73;100.00
15263;BME280;7733;51.554;13.590;2023-03-03T02:59:05;101144.97;;;1.28;100.00
15263;BME280;7733;51.554;13.590;2023-03-03T03:01:32;101154.16;;;1.20;100.00
15263;BME280;7733;51.554;13.590;2023-03-03T03:04:23;101153.66;;;1.30;100.00
15263;BME280;7733;51.554;13.590;2023-03-03T03:06:51;101149.53;;;1.11;100.00
15263;BME280;7733;51.554;13.590;2023-03-03T03:09:20;101150.41;;;1.12;100.00
15263;BME280;7733;51.554;13.590;2023-03-03T03:11:46;101161.56;;;1.11;100.00
15263;BME280;7733;51.554;13.590;2023-03-03T03:14:14;101158.88;;;1.08;100.00
15263;BME280;7733;51.554;13.590;2023-03-03T03:16:40;101157.06;;;1.29;100.00
15263;BME280;7733;51.554;13.590;2023-03-03T03:19:06;101151.69;;;1.23;100.00
15263;BME280;7733;51.554;13.590;2023-03-03T03:21:32;101151.59;;;0.98;100.00
15263;BME280;7733;51.554;13.590;2023-03-03T03:23:58;101150.31;;;1.09;100.00
15263;BME280;7733;51.554;13.590;2023-03-03T03:26:25;101150.88;;;1.00;100.00
15263;BME280;7733;51.554;13.590;2023-03-03T03:28:51;101145.59;;;1.21;100.00
15263;BME280;7733;51.554;13.590;2023-03-03T03:31:19;101158.09;;;1.58;100.00
15263;BME280;7733;51.554;13.590;2023-03-03T03:33:45;101157.13;;;1.07;100.00
15263;BME280;7733;51.554;13.590;2023-03-03T03:36:11;101168.44;;;0.64;100.00
15263;BME280;7733;51.554;13.590;2023-03-03T03:38:37;101170.41;;;0.49;100.00
15263;BME280;7733;51.554;13.590;2023-03-03T03:41:05;101172.66;;;0.84;100.00
15263;BME280;7733;51.554;13.590;2023-03-03T03:43:32;101173.22;;;0.77;100.00
15263;BME280;7733;51.554;13.590;2023-03-03T03:45:58;101168.53;;;0.89;100.00
15263;BME280;7733;51.554;13.590;2023-03-03T03:48:24;101168.88;;;0.76;100.00
15263;BME280;7733;51.554;13.590;2023-03-03T03:50:50;101173.44;;;1.06;100.00
15263;BME280;7733;51.554;13.590;2023-03-03T03:53:17;101173.66;;;1.12;100.00
15263;BME280;7733;51.554;13.590;2023-03-03T03:55:44;101183.31;;;0.71;100.00
15263;BME280;7733;51.554;13.590;2023-03-03T03:58:14;101182.97;;;0.62;100.00
15263;BME280;7733;51.554;13.590;2023-03-03T04:00:42;101194.81;;;0.57;100.00
15263;BME280;7733;51.554;13.590;2023-03-03T04:03:09;101179.09;;;0.51;100.00
15263;BME280;7733;51.554;13.590;2023-03-03T04:05:35;101188.00;;;0.59;100.00
15263;BME280;7733;51.554;13.590;2023-03-03T04:08:02;101184.84;;;0.66;100.00
15263;BME280;7733;51.554;13.590;2023-03-03T04:10:28;101189.00;;;1.07;100.00
15263;BME280;7733;51.554;13.590;2023-03-03T04:12:53;101207.59;;;0.76;100.00
15263;BME280;7733;51.554;13.590;2023-03-03T04:15:19;101212.16;;;0.82;100.00
15263;BME280;7733;51.554;13.590;2023-03-03T04:17:45;101201.56;;;0.76;100.00
15263;BME280;7733;51.554;13.590;2023-03-03T04:20:14;101194.38;;;1.13;100.00
15263;BME280;7733;51.554;13.590;2023-03-03T04:22:41;101198.03;;;0.96;100.00
15263;BME280;7733;51.554;13.590;2023-03-03T04:25:07;101184.81;;;1.11;100.00
15263;BME280;7733;51.554;13.590;2023-03-03T04:27:35;101184.75;;;0.85;100.00
15263;BME280;7733;51.554;13.590;2023-03-03T04:30:03;101204.16;;;0.76;100.00
15263;BME280;7733;51.554;13.590;2023-03-03T04:32:29;101198.16;;;0.77;100.00
15263;BME280;7733;51.554;13.590;2023-03-03T04:34:55;101189.19;;;0.89;100.00
15263;BME280;7733;51.554;13.590;2023-03-03T04:37:21;101196.56;;;1.25;100.00
15263;BME280;7733;51.554;13.590;2023-03-03T04:39:46;101196.03;;;1.11;100.00
15263;BME280;7733;51.554;13.590;2023-03-03T04:42:12;101201.00;;;0.83;100.00
15263;BME280;7733;51.554;13.590;2023-03-03T04:44:38;101197.41;;;0.79;100.00
15263;BME280;7733;51.554;13.590;2023-03-03T04:47:04;101207.75;;;0.36;100.00
15263;BME280;7733;51.554;13.590;2023-03-03T04:49:30;101197.34;;;0.35;100.00
15263;BME280;7733;51.554;13.590;2023-03-03T04:51:56;101208.94;;;0.44;100.00
15263;BME280;7733;51.554;13.590;2023-03-03T04:54:22;101211.16;;;0.14;100.00
15263;BME280;7733;51.554;13.590;2023-03-03T04:56:48;101210.50;;;-0.01;100.00
15263;BME280;7733;51.554;13.590;2023-03-03T04:59:14;101200.41;;;0.24;100.00
15263;BME280;7733;51.554;13.590;2023-03-03T05:01:40;101198.66;;;0.23;100.00
15263;BME280;7733;51.554;13.590;2023-03-03T05:04:06;101195.72;;;0.16;100.00
15263;BME280;7733;51.554;13.590;2023-03-03T05:06:32;101196.59;;;0.16;100.00
15263;BME280;7733;51.554;13.590;2023-03-03T05:08:58;101194.03;;;0.16;100.00
15263;BME280;7733;51.554;13.590;2023-03-03T05:11:24;101194.88;;;-0.25;100.00
15263;BME280;7733;51.554;13.590;2023-03-03T05:13:50;101187.56;;;-0.16;100.00
15263;BME280;7733;51.554;13.590;2023-03-03T05:16:15;101185.53;;;-0.02;100.00
15263;BME280;7733;51.554;13.590;2023-03-03T05:18:41;101187.34;;;-0.20;100.00
15263;BME280;7733;51.554;13.590;2023-03-03T05:21:07;101192.41;;;0.18;100.00
15263;BME280;7733;51.554;13.590;2023-03-03T05:23:33;101188.78;;;0.36;100.00
15263;BME280;7733;51.554;13.590;2023-03-03T05:25:58;101185.78;;;0.46;100.00
15263;BME280;7733;51.554;13.590;2023-03-03T05:28:24;101189.97;;;0.21;100.00
15263;BME280;7733;51.554;13.590;2023-03-03T05:30:50;101198.13;;;0.32;100.00
15263;BME280;7733;51.554;13.590;2023-03-03T05:33:16;101199.47;;;0.22;100.00
15263;BME280;7733;51.554;13.590;2023-03-03T05:35:43;101200.75;;;-0.08;100.00
15263;BME280;7733;51.554;13.590;2023-03-03T05:38:09;101192.63;;;0.02;100.00
15263;BME280;7733;51.554;13.590;2023-03-03T05:40:35;101187.06;;;-0.07;100.00
15263;BME280;7733;51.554;13.590;2023-03-03T05:43:01;101193.09;;;0.14;100.00
15263;BME280;7733;51.554;13.590;2023-03-03T05:45:27;101183.13;;;0.01;100.00
15263;BME280;7733;51.554;13.590;2023-03-03T05:47:53;101185.03;;;-0.14;100.00
15263;BME280;7733;51.554;13.590;2023-03-03T05:50:21;101183.84;;;0.19;100.00
15263;BME280;7733;51.554;13.590;2023-03-03T05:52:51;101177.69;;;-0.05;100.00
15263;BME280;7733;51.554;13.590;2023-03-03T05:55:18;101183.56;;;0.77;100.00
15263;BME280;7733;51.554;13.590;2023-03-03T05:57:45;101187.72;;;0.74;100.00
15263;BME280;7733;51.554;13.590;2023-03-03T06:00:13;101185.75;;;0.23;100.00
15263;BME280;7733;51.554;13.590;2023-03-03T06:02:40;101188.09;;;0.40;100.00
15263;BME280;7733;51.554;13.590;2023-03-03T06:05:08;101192.19;;;0.35;100.00
15263;BME280;7733;51.554;13.590;2023-03-03T06:07:34;101200.84;;;0.57;100.00
15263;BME280;7733;51.554;13.590;2023-03-03T06:10:00;101209.63;;;0.19;100.00
15263;BME280;7733;51.554;13.590;2023-03-03T06:12:26;101211.19;;;0.37;100.00
15263;BME280;7733;51.554;13.590;2023-03-03T06:14:52;101213.13;;;0.41;100.00
15263;BME280;7733;51.554;13.590;2023-03-03T06:17:17;101231.25;;;0.21;100.00
15263;BME280;7733;51.554;13.590;2023-03-03T06:19:43;101238.09;;;0.21;100.00
15263;BME280;7733;51.554;13.590;2023-03-03T06:22:09;101231.47;;;0.07;100.00
15263;BME280;7733;51.554;13.590;2023-03-03T06:24:34;101227.53;;;-0.25;100.00
15263;BME280;7733;51.554;13.590;2023-03-03T06:27:00;101216.75;;;0.25;100.00
15263;BME280;7733;51.554;13.590;2023-03-03T06:29:27;101228.72;;;0.23;100.00
15263;BME280;7733;51.554;13.590;2023-03-03T06:31:52;101227.50;;;0.15;100.00
15263;BME280;7733;51.554;13.590;2023-03-03T06:34:18;101246.84;;;0.24;100.00
15263;BME280;7733;51.554;13.590;2023-03-03T06:36:44;101242.44;;;0.43;100.00
15263;BME280;7733;51.554;13.590;2023-03-03T06:39:10;101243.81;;;0.35;100.00
15263;BME280;7733;51.554;13.590;2023-03-03T06:41:37;101248.47;;;0.43;100.00
15263;BME280;7733;51.554;13.590;2023-03-03T06:44:03;101245.66;;;0.80;100.00
15263;BME280;7733;51.554;13.590;2023-03-03T06:46:28;101250.34;;;0.68;100.00
15263;BME280;7733;51.554;13.590;2023-03-03T06:48:54;101255.63;;;0.50;100.00
15263;BME280;7733;51.554;13.590;2023-03-03T06:51:24;101252.59;;;0.40;100.00
15263;BME280;7733;51.554;13.590;2023-03-03T06:53:57;101253.88;;;0.28;100.00
15263;BME280;7733;51.554;13.590;2023-03-03T06:56:26;101254.16;;;0.57;100.00
15263;BME280;7733;51.554;13.590;2023-03-03T06:58:58;101253.84;;;0.70;100.00
15263;BME280;7733;51.554;13.590;2023-03-03T07:01:27;101262.13;;;0.62;100.00
15263;BME280;7733;51.554;13.590;2023-03-03T07:03:55;101259.91;;;0.71;100.00
15263;BME280;7733;51.554;13.590;2023-03-03T07:06:24;101264.63;;;0.60;100.00
15263;BME280;7733;51.554;13.590;2023-03-03T07:08:52;101264.28;;;0.73;100.00
15263;BME280;7733;51.554;13.590;2023-03-03T07:11:21;101262.16;;;0.84;100.00
15263;BME280;7733;51.554;13.590;2023-03-03T07:13:50;101261.22;;;0.82;100.00
15263;BME280;7733;51.554;13.590;2023-03-03T07:16:19;101268.31;;;1.10;100.00
15263;BME280;7733;51.554;13.590;2023-03-03T07:21:30;101256.66;;;0.76;100.00
15263;BME280;7733;51.554;13.590;2023-03-03T07:23:58;101255.50;;;0.68;100.00
15263;BME280;7733;51.554;13.590;2023-03-03T07:26:29;101252.66;;;0.83;100.00
15263;BME280;7733;51.554;13.590;2023-03-03T07:31:39;101258.44;;;0.56;100.00
15263;BME280;7733;51.554;13.590;2023-03-03T07:34:39;101257.41;;;0.51;100.00
15263;BME280;7733;51.554;13.590;2023-03-03T07:40:36;101265.66;;;0.43;100.00
15263;BME280;7733;51.554;13.590;2023-03-03T07:46:04;101275.50;;;0.11;100.00
15263;BME280;7733;51.554;13.590;2023-03-03T07:48:41;101277.63;;;0.41;100.00
15263;BME280;7733;51.554;13.590;2023-03-03T07:54:37;101291.88;;;0.53;100.00
15263;BME280;7733;51.554;13.590;2023-03-03T07:57:35;101290.38;;;0.38;100.00
15263;BME280;7733;51.554;13.590;2023-03-03T08:03:01;101293.78;;;0.57;100.00
15263;BME280;7733;51.554;13.590;2023-03-03T08:13:18;101303.66;;;0.47;100.00
15263;BME280;7733;51.554;13.590;2023-03-03T08:15:48;101300.97;;;0.44;100.00
15263;BME280;7733;51.554;13.590;2023-03-03T08:18:30;101313.59;;;0.38;100.00
15263;BME280;7733;51.554;13.590;2023-03-03T08:21:02;101311.66;;;0.53;100.00
15263;BME280;7733;51.554;13.590;2023-03-03T08:23:30;101310.28;;;0.61;100.00
15263;BME280;7733;51.554;13.590;2023-03-03T08:25:55;101310.00;;;0.55;100.00
15263;BME280;7733;51.554;13.590;2023-03-03T08:28:22;101303.84;;;0.72;100.00
15263;BME280;7733;51.554;13.590;2023-03-03T08:30:48;101299.66;;;0.97;100.00
15263;BME280;7733;51.554;13.590;2023-03-03T08:33:15;101297.44;;;0.83;100.00
15263;BME280;7733;51.554;13.590;2023-03-03T08:35:42;101298.69;;;0.72;100.00
15263;BME280;7733;51.554;13.590;2023-03-03T08:38:09;101295.41;;;0.99;100.00
15263;BME280;7733;51.554;13.590;2023-03-03T08:40:35;101298.19;;;0.81;100.00
15263;BME280;7733;51.554;13.590;2023-03-03T08:43:02;101300.84;;;0.62;100.00
15263;BME280;7733;51.554;13.590;2023-03-03T08:45:29;101308.25;;;0.75;100.00
15263;BME280;7733;51.554;13.590;2023-03-03T08:47:55;101302.97;;;0.72;100.00
15263;BME280;7733;51.554;13.590;2023-03-03T08:50:22;101301.44;;;0.56;100.00
15263;BME280;7733;51.554;13.590;2023-03-03T08:52:48;101307.81;;;0.64;100.00
15263;BME280;7733;51.554;13.590;2023-03-03T08:55:14;101312.88;;;0.61;100.00
15263;BME280;7733;51.554;13.590;2023-03-03T08:57:40;101316.94;;;0.56;100.00
15263;BME280;7733;51.554;13.590;2023-03-03T09:00:09;101324.19;;;0.44;100.00
15263;BME280;7733;51.554;13.590;2023-03-03T09:02:35;101320.63;;;0.61;100.00
15263;BME280;7733;51.554;13.590;2023-03-03T09:05:03;101317.69;;;0.74;100.00
15263;BME280;7733;51.554;13.590;2023-03-03T09:07:29;101312.88;;;1.04;100.00
15263;BME280;7733;51.554;13.590;2023-03-03T09:09:54;101312.66;;;0.77;100.00
15263;BME280;7733;51.554;13.590;2023-03-03T09:12:34;101309.03;;;0.95;100.00
15263;BME280;7733;51.554;13.590;2023-03-03T09:15:27;101304.94;;;1.00;100.00
15263;BME280;7733;51.554;13.590;2023-03-03T09:17:58;101305.84;;;1.00;100.00
15263;BME280;7733;51.554;13.590;2023-03-03T09:20:31;101305.25;;;0.64;100.00
15263;BME280;7733;51.554;13.590;2023-03-03T09:23:20;101310.41;;;0.64;100.00
15263;BME280;7733;51.554;13.590;2023-03-03T09:25:50;101305.06;;;0.80;100.00
15263;BME280;7733;51.554;13.590;2023-03-03T09:28:26;101300.13;;;1.09;100.00
15263;BME280;7733;51.554;13.590;2023-03-03T09:31:00;101307.41;;;0.97;100.00
15263;BME280;7733;51.554;13.590;2023-03-03T09:33:46;101298.78;;;1.18;100.00
15263;BME280;7733;51.554;13.590;2023-03-03T09:38:47;101302.84;;;1.34;100.00
15263;BME280;7733;51.554;13.590;2023-03-03T09:59:01;101322.22;;;1.01;100.00
15263;BME280;7733;51.554;13.590;2023-03-03T10:05:45;101326.28;;;0.96;100.00
15263;BME280;7733;51.554;13.590;2023-03-03T10:22:53;101333.13;;;1.38;100.00
15263;BME280;7733;51.554;13.590;2023-03-03T10:28:24;101333.63;;;1.28;100.00
15263;BME280;7733;51.554;13.590;2023-03-03T10:36:38;101317.50;;;1.58;100.00
15263;BME280;7733;51.554;13.590;2023-03-03T10:57:36;101333.88;;;1.58;100.00
15263;BME280;7733;51.554;13.590;2023-03-03T11:00:21;101338.13;;;1.56;100.00
15263;BME280;7733;51.554;13.590;2023-03-03T11:06:01;101323.34;;;1.76;100.00
15263;BME280;7733;51.554;13.590;2023-03-03T11:14:11;101315.06;;;1.61;100.00
15263;BME280;7733;51.554;13.590;2023-03-03T11:22:10;101310.63;;;1.80;100.00
15263;BME280;7733;51.554;13.590;2023-03-03T11:33:09;101307.94;;;1.79;100.00
15263;BME280;7733;51.554;13.590;2023-03-03T11:41:33;101294.63;;;1.92;100.00
15263;BME280;7733;51.554;13.590;2023-03-03T11:44:34;101296.06;;;1.84;100.00
15263;BME280;7733;51.554;13.590;2023-03-03T11:47:38;101290.03;;;1.83;100.00
15263;BME280;7733;51.554;13.590;2023-03-03T11:50:25;101288.09;;;2.02;100.00
15263;BME280;7733;51.554;13.590;2023-03-03T11:55:37;101290.25;;;2.15;100.00
15263;BME280;7733;51.554;13.590;2023-03-03T11:58:19;101278.09;;;2.12;100.00
15263;BME280;7733;51.554;13.590;2023-03-03T12:01:17;101289.03;;;2.29;100.00
15263;BME280;7733;51.554;13.590;2023-03-03T12:04:00;101280.47;;;2.06;100.00
15263;BME280;7733;51.554;13.590;2023-03-03T12:10:41;101281.72;;;2.18;100.00
15263;BME280;7733;51.554;13.590;2023-03-03T12:13:35;101272.53;;;2.00;100.00
15263;BME280;7733;51.554;13.590;2023-03-03T12:27:41;101268.72;;;2.16;100.00
15263;BME280;7733;51.554;13.590;2023-03-03T12:36:07;101263.38;;;2.37;100.00
15263;BME280;7733;51.554;13.590;2023-03-03T12:38:55;101262.78;;;2.19;100.00
15263;BME280;7733;51.554;13.590;2023-03-03T12:41:59;101265.78;;;2.31;100.00
15263;BME280;7733;51.554;13.590;2023-03-03T12:44:49;101249.94;;;2.47;100.00
15263;BME280;7733;51.554;13.590;2023-03-03T12:48:00;101253.44;;;2.49;100.00
15263;BME280;7733;51.554;13.590;2023-03-03T12:50:46;101254.41;;;2.26;100.00
15263;BME280;7733;51.554;13.590;2023-03-03T12:56:16;101257.84;;;2.52;100.00
15263;BME280;7733;51.554;13.590;2023-03-03T12:59:13;101251.69;;;1.97;100.00
15263;BME280;7733;51.554;13.590;2023-03-03T13:05:02;101243.81;;;2.20;100.00
15263;BME280;7733;51.554;13.590;2023-03-03T13:07:41;101240.31;;;2.18;100.00
15263;BME280;7733;51.554;13.590;2023-03-03T13:10:37;101240.88;;;2.09;100.00
15263;BME280;7733;51.554;13.590;2023-03-03T13:13:43;101229.91;;;2.16;100.00
15263;BME280;7733;51.554;13.590;2023-03-03T13:16:21;101228.91;;;2.38;100.00
15263;BME280;7733;51.554;13.590;2023-03-03T13:19:16;101232.41;;;2.13;100.00
15263;BME280;7733;51.554;13.590;2023-03-03T13:21:53;101222.84;;;2.37;100.00
15263;BME280;7733;51.554;13.590;2023-03-03T13:27:06;101212.66;;;2.42;100.00
15263;BME280;7733;51.554;13.590;2023-03-03T13:32:21;101226.00;;;2.54;100.00
15263;BME280;7733;51.554;13.590;2023-03-03T13:35:10;101217.19;;;2.49;100.00
15263;BME280;7733;51.554;13.590;2023-03-03T13:37:44;101226.72;;;2.50;100.00
15263;BME280;7733;51.554;13.590;2023-03-03T13:43:04;101214.59;;;2.49;100.00
15263;BME280;7733;51.554;13.590;2023-03-03T13:45:53;101199.59;;;2.66;100.00
15263;BME280;7733;51.554;13.590;2023-03-03T13:49:10;101207.59;;;2.73;100.00
15263;BME280;7733;51.554;13.590;2023-03-03T13:57:44;101198.28;;;2.52;100.00
15263;BME280;7733;51.554;13.590;2023-03-03T14:00:31;101202.44;;;3.02;100.00
15263;BME280;7733;51.554;13.590;2023-03-03T14:05:56;101203.91;;;2.94;100.00
15263;BME280;7733;51.554;13.590;2023-03-03T14:17:30;101197.16;;;2.70;100.00
15263;BME280;7733;51.554;13.590;2023-03-03T14:19:51;101198.03;;;2.71;100.00
15263;BME280;7733;51.554;13.590;2023-03-03T14:25:13;101198.16;;;2.47;100.00
15263;BME280;7733;51.554;13.590;2023-03-03T14:35:50;101205.09;;;2.48;100.00
15263;BME280;7733;51.554;13.590;2023-03-03T14:38:46;101200.66;;;2.72;100.00
15263;BME280;7733;51.554;13.590;2023-03-03T14:41:21;101194.66;;;2.73;100.00
15263;BME280;7733;51.554;13.590;2023-03-03T14:44:01;101186.78;;;2.70;100.00
15263;BME280;7733;51.554;13.590;2023-03-03T14:49:01;101179.47;;;2.57;100.00
15263;BME280;7733;51.554;13.590;2023-03-03T14:51:48;101177.41;;;2.74;100.00
15263;BME280;7733;51.554;13.590;2023-03-03T14:54:29;101185.50;;;2.85;100.00
15263;BME280;7733;51.554;13.590;2023-03-03T15:10:40;101175.50;;;2.97;100.00
15263;BME280;7733;51.554;13.590;2023-03-03T15:13:26;101171.34;;;3.02;100.00
15263;BME280;7733;51.554;13.590;2023-03-03T15:18:25;101171.91;;;2.92;100.00
15263;BME280;7733;51.554;13.590;2023-03-03T15:21:13;101182.16;;;2.89;100.00
15263;BME280;7733;51.554;13.590;2023-03-03T15:26:43;101175.41;;;2.94;100.00
15263;BME280;7733;51.554;13.590;2023-03-03T15:32:14;101162.78;;;3.04;100.00
15263;BME280;7733;51.554;13.590;2023-03-03T15:38:33;101163.38;;;2.96;100.00
15263;BME280;7733;51.554;13.590;2023-03-03T15:41:39;101164.63;;;3.09;100.00
15263;BME280;7733;51.554;13.590;2023-03-03T15:44:15;101167.34;;;3.13;100.00
15263;BME280;7733;51.554;13.590;2023-03-03T15:47:25;101156.19;;;2.86;100.00
15263;BME280;7733;51.554;13.590;2023-03-03T15:50:31;101151.97;;;2.89;100.00
15263;BME280;7733;51.554;13.590;2023-03-03T15:53:29;101149.81;;;3.04;100.00
15263;BME280;7733;51.554;13.590;2023-03-03T16:01:59;101144.06;;;2.85;100.00
15263;BME280;7733;51.554;13.590;2023-03-03T16:04:34;101144.28;;;2.92;100.00
15263;BME280;7733;51.554;13.590;2023-03-03T16:13:17;101141.41;;;3.13;100.00
15263;BME280;7733;51.554;13.590;2023-03-03T16:16:19;101142.34;;;3.15;100.00
15263;BME280;7733;51.554;13.590;2023-03-03T16:22:30;101131.22;;;3.19;100.00
15263;BME280;7733;51.554;13.590;2023-03-03T16:25:19;101145.69;;;3.11;100.00
15263;BME280;7733;51.554;13.590;2023-03-03T16:28:08;101146.06;;;3.25;100.00
15263;BME280;7733;51.554;13.590;2023-03-03T16:30:49;101144.69;;;3.06;100.00
15263;BME280;7733;51.554;13.590;2023-03-03T16:39:19;101156.72;;;2.75;100.00
15263;BME280;7733;51.554;13.590;2023-03-03T16:42:22;101162.81;;;2.78;100.00
15263;BME280;7733;51.554;13.590;2023-03-03T16:45:26;101140.00;;;2.94;100.00
15263;BME280;7733;51.554;13.590;2023-03-03T16:48:13;101146.50;;;2.80;100.00
15263;BME280;7733;51.554;13.590;2023-03-03T16:56:35;101148.69;;;2.66;100.00
15263;BME280;7733;51.554;13.590;2023-03-03T17:00:22;101148.41;;;2.57;100.00
15263;BME280;7733;51.554;13.590;2023-03-03T17:03:27;101155.00;;;3.04;100.00
15263;BME280;7733;51.554;13.590;2023-03-03T17:06:15;101158.28;;;2.99;100.00
15263;BME280;7733;51.554;13.590;2023-03-03T17:12:00;101153.84;;;2.95;100.00
15263;BME280;7733;51.554;13.590;2023-03-03T17:17:42;101159.53;;;2.82;100.00
15263;BME280;7733;51.554;13.590;2023-03-03T17:32:10;101148.78;;;2.99;100.00
15263;BME280;7733;51.554;13.590;2023-03-03T17:37:53;101134.38;;;2.79;100.00
15263;BME280;7733;51.554;13.590;2023-03-03T17:45:47;101140.97;;;3.28;100.00
15263;BME280;7733;51.554;13.590;2023-03-03T17:54:55;101141.94;;;3.31;100.00
15263;BME280;7733;51.554;13.590;2023-03-03T17:57:16;101145.00;;;3.18;100.00
15263;BME280;7733;51.554;13.590;2023-03-03T18:09:12;101147.28;;;3.38;100.00
15263;BME280;7733;51.554;13.590;2023-03-03T18:12:09;101149.63;;;3.28;100.00
15263;BME280;7733;51.554;13.590;2023-03-03T18:23:32;101153.06;;;3.27;100.00
15263;BME280;7733;51.554;13.590;2023-03-03T18:26:41;101155.72;;;3.30;100.00
15263;BME280;7733;51.554;13.590;2023-03-03T18:29:17;101152.97;;;3.24;100.00
15263;BME280;7733;51.554;13.590;2023-03-03T18:39:48;101146.66;;;3.46;100.00